KBHB

Hancock County-Bar Harbor Airport

Bar Harbor, Maine, USA
METAR KBHB 222156Z AUTO 30008KT 10SM CLR 13/M11 A3025 RMK AO2 SLP247 T01281106 $
Observed Flight Rules
Apr-22 @ 21:56 UTC (7 minutes ago) Visual Flight Rules
Wind Visibility Clouds
300° at 8 knots 10 miles
  • Clear skies
Temperatures Readings
Current 13°C / 55°F
Dewpoint -11°C / 12°F
Humidity 18%
Altimeter 30.25" Hg
Pressure 1024.7 hPa
Elevation 26
METAR KBHB 222156Z AUTO 30008KT 10SM CLR 13/M11 A3025 RMK AO2 SLP247 T01281106 $
Observed Flight Rules
Apr-22 @ 21:56 UTC
(7 minutes ago)
VFR
Wind Visibility
300° at 8 knots 10 miles
Clouds
  • Clear skies
Temperature Dewpoint
13°C / 55°F -11°C / 12°F
Humidity Altimeter Pressure
18% 30.25" Hg 1024.7 hPa